sensor_id;sensor_type;location;lat;lon;timestamp;pressure;altitude;pressure_sealevel;temperature;humidity
18436;BME280;9346;52.006;4.720;2023-04-01T00:02:12;98998.19;;;11.03;100.00
18436;BME280;9346;52.006;4.720;2023-04-01T00:04:39;98996.25;;;11.04;100.00
18436;BME280;9346;52.006;4.720;2023-04-01T00:07:06;98993.00;;;11.02;100.00
18436;BME280;9346;52.006;4.720;2023-04-01T00:09:33;98996.91;;;11.01;100.00
18436;BME280;9346;52.006;4.720;2023-04-01T00:12:03;99001.25;;;11.02;100.00
18436;BME280;9346;52.006;4.720;2023-04-01T00:14:30;98996.91;;;11.01;100.00
18436;BME280;9346;52.006;4.720;2023-04-01T00:16:57;99001.94;;;10.99;100.00
18436;BME280;9346;52.006;4.720;2023-04-01T00:19:24;99008.56;;;10.98;100.00
18436;BME280;9346;52.006;4.720;2023-04-01T00:21:51;99002.25;;;10.97;100.00
18436;BME280;9346;52.006;4.720;2023-04-01T00:24:18;99010.84;;;10.96;100.00
18436;BME280;9346;52.006;4.720;2023-04-01T00:26:45;99006.44;;;10.95;100.00
18436;BME280;9346;52.006;4.720;2023-04-01T00:29:14;99016.16;;;10.92;100.00
18436;BME280;9346;52.006;4.720;2023-04-01T00:31:41;99017.63;;;10.90;100.00
18436;BME280;9346;52.006;4.720;2023-04-01T00:34:08;99015.19;;;10.88;100.00
18436;BME280;9346;52.006;4.720;2023-04-01T00:36:35;99024.25;;;10.89;100.00
18436;BME280;9346;52.006;4.720;2023-04-01T00:39:02;99026.19;;;10.88;100.00
18436;BME280;9346;52.006;4.720;2023-04-01T00:41:29;99020.50;;;10.85;100.00
18436;BME280;9346;52.006;4.720;2023-04-01T00:44:11;99020.34;;;10.81;100.00
18436;BME280;9346;52.006;4.720;2023-04-01T00:46:43;99022.78;;;10.83;100.00
18436;BME280;9346;52.006;4.720;2023-04-01T00:49:10;99017.91;;;10.80;100.00
18436;BME280;9346;52.006;4.720;2023-04-01T00:51:37;99036.38;;;10.79;100.00
18436;BME280;9346;52.006;4.720;2023-04-01T00:54:06;99032.78;;;10.79;100.00
18436;BME280;9346;52.006;4.720;2023-04-01T00:56:35;99033.63;;;10.79;100.00
18436;BME280;9346;52.006;4.720;2023-04-01T00:59:06;99035.88;;;10.77;100.00
18436;BME280;9346;52.006;4.720;2023-04-01T01:01:36;99033.94;;;10.78;100.00
18436;BME280;9346;52.006;4.720;2023-04-01T01:04:06;99040.59;;;10.77;100.00
18436;BME280;9346;52.006;4.720;2023-04-01T01:06:46;99044.44;;;10.76;100.00
18436;BME280;9346;52.006;4.720;2023-04-01T01:09:30;99042.84;;;10.75;100.00
18436;BME280;9346;52.006;4.720;2023-04-01T01:12:03;99042.31;;;10.73;100.00
18436;BME280;9346;52.006;4.720;2023-04-01T01:17:40;99045.75;;;10.70;100.00
18436;BME280;9346;52.006;4.720;2023-04-01T01:23:21;99048.81;;;10.68;100.00
18436;BME280;9346;52.006;4.720;2023-04-01T01:26:05;99048.00;;;10.68;100.00
18436;BME280;9346;52.006;4.720;2023-04-01T01:28:44;99048.00;;;10.68;100.00
18436;BME280;9346;52.006;4.720;2023-04-01T01:31:20;99047.47;;;10.66;100.00
18436;BME280;9346;52.006;4.720;2023-04-01T01:34:07;99055.75;;;10.66;100.00
18436;BME280;9346;52.006;4.720;2023-04-01T01:36:42;99052.50;;;10.64;100.00
18436;BME280;9346;52.006;4.720;2023-04-01T01:39:12;99058.03;;;10.64;100.00
18436;BME280;9346;52.006;4.720;2023-04-01T01:41:42;99062.38;;;10.65;100.00
18436;BME280;9346;52.006;4.720;2023-04-01T01:44:12;99062.72;;;10.63;100.00
18436;BME280;9346;52.006;4.720;2023-04-01T01:46:41;99065.16;;;10.65;100.00
18436;BME280;9346;52.006;4.720;2023-04-01T01:49:10;99068.72;;;10.65;100.00
18436;BME280;9346;52.006;4.720;2023-04-01T01:51:38;99061.88;;;10.63;100.00
18436;BME280;9346;52.006;4.720;2023-04-01T01:54:11;99069.34;;;10.62;100.00
18436;BME280;9346;52.006;4.720;2023-04-01T01:56:39;99071.28;;;10.62;100.00
18436;BME280;9346;52.006;4.720;2023-04-01T01:59:09;99072.72;;;10.59;100.00
18436;BME280;9346;52.006;4.720;2023-04-01T02:01:41;99074.66;;;10.59;100.00
18436;BME280;9346;52.006;4.720;2023-04-01T02:04:10;99070.28;;;10.58;100.00
18436;BME280;9346;52.006;4.720;2023-04-01T02:06:40;99077.41;;;10.59;100.00
18436;BME280;9346;52.006;4.720;2023-04-01T02:09:10;99082.09;;;10.58;100.00
18436;BME280;9346;52.006;4.720;2023-04-01T02:11:41;99085.16;;;10.57;100.00
18436;BME280;9346;52.006;4.720;2023-04-01T02:14:13;99085.16;;;10.57;100.00
18436;BME280;9346;52.006;4.720;2023-04-01T02:16:45;99091.34;;;10.54;100.00
18436;BME280;9346;52.006;4.720;2023-04-01T02:19:17;99103.13;;;10.54;100.00
18436;BME280;9346;52.006;4.720;2023-04-01T02:21:49;99099.91;;;10.52;100.00
18436;BME280;9346;52.006;4.720;2023-04-01T02:24:19;99098.25;;;10.51;100.00
18436;BME280;9346;52.006;4.720;2023-04-01T02:26:50;99106.84;;;10.50;100.00
18436;BME280;9346;52.006;4.720;2023-04-01T02:29:20;99105.22;;;10.49;100.00
18436;BME280;9346;52.006;4.720;2023-04-01T02:31:48;99111.22;;;10.51;100.00
18436;BME280;9346;52.006;4.720;2023-04-01T02:34:16;99112.84;;;10.52;100.00
18436;BME280;9346;52.006;4.720;2023-04-01T02:36:43;99118.66;;;10.50;100.00
18436;BME280;9346;52.006;4.720;2023-04-01T02:39:10;99118.34;;;10.52;100.00
18436;BME280;9346;52.006;4.720;2023-04-01T02:41:43;99123.03;;;10.51;100.00
18436;BME280;9346;52.006;4.720;2023-04-01T02:44:12;99119.19;;;10.52;100.00
18436;BME280;9346;52.006;4.720;2023-04-01T02:46:39;99118.66;;;10.50;100.00
18436;BME280;9346;52.006;4.720;2023-04-01T02:49:06;99123.34;;;10.50;100.00
18436;BME280;9346;52.006;4.720;2023-04-01T02:51:33;99125.78;;;10.51;100.00
18436;BME280;9346;52.006;4.720;2023-04-01T02:54:01;99127.44;;;10.52;100.00
18436;BME280;9346;52.006;4.720;2023-04-01T02:56:28;99127.44;;;10.52;100.00
18436;BME280;9346;52.006;4.720;2023-04-01T02:58:56;99133.72;;;10.53;100.00
18436;BME280;9346;52.006;4.720;2023-04-01T03:01:23;99133.72;;;10.53;100.00
18436;BME280;9346;52.006;4.720;2023-04-01T03:03:50;99135.19;;;10.50;100.00
18436;BME280;9346;52.006;4.720;2023-04-01T03:06:17;99140.69;;;10.50;100.00
18436;BME280;9346;52.006;4.720;2023-04-01T03:08:44;99145.88;;;10.52;100.00
18436;BME280;9346;52.006;4.720;2023-04-01T03:11:11;99156.88;;;10.52;100.00
18436;BME280;9346;52.006;4.720;2023-04-01T03:13:38;99153.81;;;10.53;100.00
18436;BME280;9346;52.006;4.720;2023-04-01T03:16:07;99158.50;;;10.53;100.00
18436;BME280;9346;52.006;4.720;2023-04-01T03:18:34;99158.03;;;10.51;100.00
18436;BME280;9346;52.006;4.720;2023-04-01T03:21:13;99163.53;;;10.51;100.00
18436;BME280;9346;52.006;4.720;2023-04-01T03:23:40;99173.41;;;10.52;100.00
18436;BME280;9346;52.006;4.720;2023-04-01T03:26:07;99182.50;;;10.52;100.00
18436;BME280;9346;52.006;4.720;2023-04-01T03:28:34;99171.94;;;10.54;100.00
18436;BME280;9346;52.006;4.720;2023-04-01T03:31:01;99185.09;;;10.57;100.00
18436;BME280;9346;52.006;4.720;2023-04-01T03:33:29;99193.34;;;10.57;100.00
18436;BME280;9346;52.006;4.720;2023-04-01T03:35:56;99193.66;;;10.56;100.00
18436;BME280;9346;52.006;4.720;2023-04-01T03:38:23;99203.53;;;10.57;100.00
18436;BME280;9346;52.006;4.720;2023-04-01T03:40:50;99204.69;;;10.56;100.00
18436;BME280;9346;52.006;4.720;2023-04-01T03:43:17;99211.81;;;10.57;100.00
18436;BME280;9346;52.006;4.720;2023-04-01T03:45:44;99216.50;;;10.56;100.00
18436;BME280;9346;52.006;4.720;2023-04-01T03:48:11;99220.06;;;10.57;100.00
18436;BME280;9346;52.006;4.720;2023-04-01T03:50:40;99221.19;;;10.56;100.00
18436;BME280;9346;52.006;4.720;2023-04-01T03:53:07;99225.25;;;10.58;100.00
18436;BME280;9346;52.006;4.720;2023-04-01T03:55:35;99229.44;;;10.56;100.00
18436;BME280;9346;52.006;4.720;2023-04-01T03:58:02;99236.56;;;10.57;100.00
18436;BME280;9346;52.006;4.720;2023-04-01T04:00:30;99237.09;;;10.59;100.00
18436;BME280;9346;52.006;4.720;2023-04-01T04:02:57;99242.91;;;10.57;100.00
18436;BME280;9346;52.006;4.720;2023-04-01T04:05:25;99244.84;;;10.57;100.00
18436;BME280;9346;52.006;4.720;2023-04-01T04:07:54;99253.28;;;10.60;100.00
18436;BME280;9346;52.006;4.720;2023-04-01T04:10:20;99255.53;;;10.58;100.00
18436;BME280;9346;52.006;4.720;2023-04-01T04:12:49;99268.19;;;10.59;100.00
18436;BME280;9346;52.006;4.720;2023-04-01T04:15:16;99268.69;;;10.61;100.00
18436;BME280;9346;52.006;4.720;2023-04-01T04:17:43;99270.94;;;10.59;100.00
18436;BME280;9346;52.006;4.720;2023-04-01T04:20:11;99274.50;;;10.60;100.00
18436;BME280;9346;52.006;4.720;2023-04-01T04:22:38;99276.47;;;10.59;100.00
18436;BME280;9346;52.006;4.720;2023-04-01T04:25:07;99282.75;;;10.60;100.00
18436;BME280;9346;52.006;4.720;2023-04-01T04:27:35;99289.91;;;10.61;100.00
18436;BME280;9346;52.006;4.720;2023-04-01T04:30:02;99295.91;;;10.63;100.00
18436;BME280;9346;52.006;4.720;2023-04-01T04:32:29;99295.41;;;10.61;100.00
18436;BME280;9346;52.006;4.720;2023-04-01T04:34:56;99303.69;;;10.61;100.00
18436;BME280;9346;52.006;4.720;2023-04-01T04:37:24;99302.84;;;10.60;100.00
18436;BME280;9346;52.006;4.720;2023-04-01T04:39:51;99309.50;;;10.59;100.00
18436;BME280;9346;52.006;4.720;2023-04-01T04:42:19;99316.63;;;10.60;100.00
18436;BME280;9346;52.006;4.720;2023-04-01T04:44:46;99312.56;;;10.58;100.00
18436;BME280;9346;52.006;4.720;2023-04-01T04:47:13;99327.94;;;10.59;100.00
18436;BME280;9346;52.006;4.720;2023-04-01T04:49:40;99328.25;;;10.57;100.00
18436;BME280;9346;52.006;4.720;2023-04-01T04:52:07;99327.75;;;10.55;100.00
18436;BME280;9346;52.006;4.720;2023-04-01T04:54:34;99328.38;;;10.52;100.00
18436;BME280;9346;52.006;4.720;2023-04-01T04:57:01;99326.72;;;10.51;100.00
18436;BME280;9346;52.006;4.720;2023-04-01T04:59:30;99330.31;;;10.52;100.00
18436;BME280;9346;52.006;4.720;2023-04-01T05:01:57;99336.13;;;10.50;100.00
18436;BME280;9346;52.006;4.720;2023-04-01T05:04:24;99336.44;;;10.49;100.00
18436;BME280;9346;52.006;4.720;2023-04-01T05:06:51;99341.72;;;10.45;100.00
18436;BME280;9346;52.006;4.720;2023-04-01T05:09:18;99348.38;;;10.44;100.00
18436;BME280;9346;52.006;4.720;2023-04-01T05:11:45;99349.69;;;10.47;100.00
18436;BME280;9346;52.006;4.720;2023-04-01T05:14:13;99353.56;;;10.46;100.00
18436;BME280;9346;52.006;4.720;2023-04-01T05:16:42;99365.72;;;10.45;100.00
18436;BME280;9346;52.006;4.720;2023-04-01T05:19:09;99368.47;;;10.45;100.00
18436;BME280;9346;52.006;4.720;2023-04-01T05:21:36;99375.88;;;10.44;100.00
18436;BME280;9346;52.006;4.720;2023-04-01T05:24:03;99384.16;;;10.44;100.00
18436;BME280;9346;52.006;4.720;2023-04-01T05:26:33;99380.25;;;10.45;100.00
18436;BME280;9346;52.006;4.720;2023-04-01T05:29:02;99383.97;;;10.41;100.00
18436;BME280;9346;52.006;4.720;2023-04-01T05:31:29;99385.38;;;10.38;100.00
18436;BME280;9346;52.006;4.720;2023-04-01T05:33:58;99391.72;;;10.39;100.00
18436;BME280;9346;52.006;4.720;2023-04-01T05:36:24;99390.09;;;10.38;100.00
18436;BME280;9346;52.006;4.720;2023-04-01T05:38:54;99404.66;;;10.38;100.00
18436;BME280;9346;52.006;4.720;2023-04-01T05:41:21;99403.84;;;10.38;100.00
18436;BME280;9346;52.006;4.720;2023-04-01T05:43:48;99408.84;;;10.36;100.00
18436;BME280;9346;52.006;4.720;2023-04-01T05:46:15;99409.66;;;10.36;100.00
18436;BME280;9346;52.006;4.720;2023-04-01T05:48:41;99423.13;;;10.38;100.00
18436;BME280;9346;52.006;4.720;2023-04-01T05:51:13;99415.66;;;10.38;100.00
18436;BME280;9346;52.006;4.720;2023-04-01T05:53:41;99427.47;;;10.39;100.00
18436;BME280;9346;52.006;4.720;2023-04-01T05:56:08;99426.34;;;10.40;100.00
18436;BME280;9346;52.006;4.720;2023-04-01T05:58:35;99432.16;;;10.38;100.00
18436;BME280;9346;52.006;4.720;2023-04-01T06:01:03;99433.28;;;10.37;100.00
18436;BME280;9346;52.006;4.720;2023-04-01T06:03:30;99437.97;;;10.37;100.00
18436;BME280;9346;52.006;4.720;2023-04-01T06:05:57;99430.84;;;10.36;100.00
18436;BME280;9346;52.006;4.720;2023-04-01T06:08:30;99445.75;;;10.35;100.00
18436;BME280;9346;52.006;4.720;2023-04-01T06:11:10;99447.06;;;10.37;100.00
18436;BME280;9346;52.006;4.720;2023-04-01T06:13:58;99453.09;;;10.39;100.00
18436;BME280;9346;52.006;4.720;2023-04-01T06:16:39;99458.38;;;10.36;100.00
18436;BME280;9346;52.006;4.720;2023-04-01T06:19:24;99465.50;;;10.37;100.00
18436;BME280;9346;52.006;4.720;2023-04-01T06:24:51;99481.22;;;10.36;100.00
18436;BME280;9346;52.006;4.720;2023-04-01T06:27:37;99478.47;;;10.36;100.00
18436;BME280;9346;52.006;4.720;2023-04-01T06:30:23;99485.59;;;10.37;100.00
18436;BME280;9346;52.006;4.720;2023-04-01T06:32:58;99489.16;;;10.38;100.00
18436;BME280;9346;52.006;4.720;2023-04-01T06:35:38;99502.94;;;10.38;100.00
18436;BME280;9346;52.006;4.720;2023-04-01T06:38:19;99497.41;;;10.38;100.00
18436;BME280;9346;52.006;4.720;2023-04-01T06:41:06;99504.63;;;10.34;100.00
18436;BME280;9346;52.006;4.720;2023-04-01T06:43:49;99513.72;;;10.34;100.00
18436;BME280;9346;52.006;4.720;2023-04-01T06:46:24;99511.78;;;10.35;100.00
18436;BME280;9346;52.006;4.720;2023-04-01T06:49:10;99505.25;;;10.31;100.00
18436;BME280;9346;52.006;4.720;2023-04-01T06:51:47;99520.97;;;10.30;100.00
18436;BME280;9346;52.006;4.720;2023-04-01T06:54:21;99517.69;;;10.28;100.00
18436;BME280;9346;52.006;4.720;2023-04-01T06:56:56;99520.75;;;10.27;100.00
18436;BME280;9346;52.006;4.720;2023-04-01T06:59:26;99525.94;;;10.28;100.00
18436;BME280;9346;52.006;4.720;2023-04-01T07:01:58;99525.13;;;10.28;100.00
18436;BME280;9346;52.006;4.720;2023-04-01T07:04:28;99530.13;;;10.26;100.00
18436;BME280;9346;52.006;4.720;2023-04-01T07:06:58;99532.88;;;10.26;100.00
18436;BME280;9346;52.006;4.720;2023-04-01T07:09:31;99547.47;;;10.26;100.00
18436;BME280;9346;52.006;4.720;2023-04-01T07:12:09;99540.09;;;10.22;100.00
18436;BME280;9346;52.006;4.720;2023-04-01T07:14:41;99540.41;;;10.20;100.00
18436;BME280;9346;52.006;4.720;2023-04-01T07:17:15;99550.59;;;10.20;100.00
18436;BME280;9346;52.006;4.720;2023-04-01T07:19:46;99553.88;;;10.22;100.00
18436;BME280;9346;52.006;4.720;2023-04-01T07:22:21;99558.47;;;10.26;100.00
18436;BME280;9346;52.006;4.720;2023-04-01T07:24:53;99568.84;;;10.29;100.00
18436;BME280;9346;52.006;4.720;2023-04-01T07:27:24;99571.28;;;10.31;100.00
18436;BME280;9346;52.006;4.720;2023-04-01T07:29:51;99563.03;;;10.31;100.00
18436;BME280;9346;52.006;4.720;2023-04-01T07:32:30;99573.97;;;10.36;100.00
18436;BME280;9346;52.006;4.720;2023-04-01T07:35:08;99578.44;;;10.32;100.00
18436;BME280;9346;52.006;4.720;2023-04-01T07:37:42;99582.22;;;10.36;100.00
18436;BME280;9346;52.006;4.720;2023-04-01T07:40:20;99588.03;;;10.34;100.00
18436;BME280;9346;52.006;4.720;2023-04-01T07:43:01;99587.44;;;10.37;100.00
18436;BME280;9346;52.006;4.720;2023-04-01T07:45:35;99600.06;;;10.38;100.00
18436;BME280;9346;52.006;4.720;2023-04-01T07:48:17;99595.38;;;10.39;100.00
18436;BME280;9346;52.006;4.720;2023-04-01T07:50:51;99586.00;;;10.40;100.00
18436;BME280;9346;52.006;4.720;2023-04-01T07:53:27;99593.94;;;10.41;100.00
18436;BME280;9346;52.006;4.720;2023-04-01T07:56:00;99603.84;;;10.42;100.00
18436;BME280;9346;52.006;4.720;2023-04-01T07:58:38;99605.56;;;10.38;100.00
18436;BME280;9346;52.006;4.720;2023-04-01T08:01:13;99608.00;;;10.40;100.00
18436;BME280;9346;52.006;4.720;2023-04-01T08:03:55;99605.78;;;10.42;100.00
18436;BME280;9346;52.006;4.720;2023-04-01T08:06:34;99611.28;;;10.42;100.00
18436;BME280;9346;52.006;4.720;2023-04-01T08:09:07;99615.19;;;10.41;100.00
18436;BME280;9346;52.006;4.720;2023-04-01T08:11:47;99630.03;;;10.40;100.00
18436;BME280;9346;52.006;4.720;2023-04-01T08:14:26;99630.84;;;10.40;100.00
18436;BME280;9346;52.006;4.720;2023-04-01T08:17:02;99629.25;;;10.39;100.00
18436;BME280;9346;52.006;4.720;2023-04-01T08:19:42;99638.28;;;10.40;100.00
18436;BME280;9346;52.006;4.720;2023-04-01T08:22:16;99649.81;;;10.42;100.00
18436;BME280;9346;52.006;4.720;2023-04-01T08:24:47;99646.25;;;10.41;100.00
18436;BME280;9346;52.006;4.720;2023-04-01T08:27:18;99652.88;;;10.40;100.00
18436;BME280;9346;52.006;4.720;2023-04-01T08:29:51;99659.22;;;10.41;100.00
18436;BME280;9346;52.006;4.720;2023-04-01T08:32:26;99661.97;;;10.41;100.00
18436;BME280;9346;52.006;4.720;2023-04-01T08:35:08;99661.88;;;10.46;100.00
18436;BME280;9346;52.006;4.720;2023-04-01T08:37:39;99667.91;;;10.48;100.00
18436;BME280;9346;52.006;4.720;2023-04-01T08:40:24;99671.75;;;10.47;100.00
18436;BME280;9346;52.006;4.720;2023-04-01T08:43:05;99674.72;;;10.50;100.00
18436;BME280;9346;52.006;4.720;2023-04-01T08:45:45;99672.56;;;10.47;100.00
18436;BME280;9346;52.006;4.720;2023-04-01T08:48:28;99675.31;;;10.47;100.00
18436;BME280;9346;52.006;4.720;2023-04-01T08:51:13;99678.31;;;10.51;100.00
18436;BME280;9346;52.006;4.720;2023-04-01T08:54:06;99684.31;;;10.53;100.00
18436;BME280;9346;52.006;4.720;2023-04-01T08:56:43;99693.69;;;10.52;100.00
18436;BME280;9346;52.006;4.720;2023-04-01T08:59:35;99695.84;;;10.55;100.00
18436;BME280;9346;52.006;4.720;2023-04-01T09:02:49;99705.97;;;10.59;100.00
18436;BME280;9346;52.006;4.720;2023-04-01T09:05:26;99706.75;;;10.60;100.00
18436;BME280;9346;52.006;4.720;2023-04-01T09:08:03;99706.16;;;10.63;100.00
18436;BME280;9346;52.006;4.720;2023-04-01T09:10:55;99711.06;;;10.66;100.00
18436;BME280;9346;52.006;4.720;2023-04-01T09:13:38;99712.91;;;10.70;100.00
18436;BME280;9346;52.006;4.720;2023-04-01T09:16:21;99713.44;;;10.72;100.00
18436;BME280;9346;52.006;4.720;2023-04-01T09:19:16;99721.91;;;10.76;100.00
18436;BME280;9346;52.006;4.720;2023-04-01T09:22:00;99719.97;;;10.76;100.00
18436;BME280;9346;52.006;4.720;2023-04-01T09:27:38;99720.28;;;10.75;100.00
18436;BME280;9346;52.006;4.720;2023-04-01T09:30:33;99721.31;;;10.79;100.00
18436;BME280;9346;52.006;4.720;2023-04-01T09:36:20;99720.28;;;10.75;100.00
18436;BME280;9346;52.006;4.720;2023-04-01T09:38:56;99732.91;;;10.76;100.00
18436;BME280;9346;52.006;4.720;2023-04-01T09:41:29;99737.81;;;10.79;100.00
18436;BME280;9346;52.006;4.720;2023-04-01T09:44:03;99734.78;;;10.80;100.00
18436;BME280;9346;52.006;4.720;2023-04-01T09:46:54;99736.13;;;10.83;100.00
18436;BME280;9346;52.006;4.720;2023-04-01T09:49:55;99741.84;;;10.86;100.00
18436;BME280;9346;52.006;4.720;2023-04-01T09:52:32;99746.75;;;10.89;100.00
18436;BME280;9346;52.006;4.720;2023-04-01T09:55:19;99741.22;;;10.89;100.00
18436;BME280;9346;52.006;4.720;2023-04-01T09:58:05;99744.81;;;10.90;100.00
18436;BME280;9346;52.006;4.720;2023-04-01T10:00:53;99751.88;;;10.96;100.00
18436;BME280;9346;52.006;4.720;2023-04-01T10:06:56;99761.34;;;11.03;100.00
18436;BME280;9346;52.006;4.720;2023-04-01T10:09:52;99765.47;;;11.06;100.00
18436;BME280;9346;52.006;4.720;2023-04-01T10:22:12;99766.47;;;11.10;100.00
18436;BME280;9346;52.006;4.720;2023-04-01T10:25:07;99775.47;;;11.15;100.00
18436;BME280;9346;52.006;4.720;2023-04-01T10:27:55;99776.91;;;11.13;100.00
18436;BME280;9346;52.006;4.720;2023-04-01T10:36:41;99788.41;;;11.15;100.00
18436;BME280;9346;52.006;4.720;2023-04-01T10:45:56;99790.75;;;11.08;100.00
18436;BME280;9346;52.006;4.720;2023-04-01T10:48:48;99797.94;;;11.09;100.00
18436;BME280;9346;52.006;4.720;2023-04-01T10:51:38;99795.59;;;11.16;100.00
18436;BME280;9346;52.006;4.720;2023-04-01T10:57:23;99802.72;;;11.17;100.00
18436;BME280;9346;52.006;4.720;2023-04-01T11:03:11;99802.19;;;11.15;100.00
18436;BME280;9346;52.006;4.720;2023-04-01T11:06:17;99805.28;;;11.13;100.00
18436;BME280;9346;52.006;4.720;2023-04-01T11:12:35;99814.16;;;11.10;100.00
18436;BME280;9346;52.006;4.720;2023-04-01T11:15:34;99815.25;;;11.09;100.00
18436;BME280;9346;52.006;4.720;2023-04-01T11:21:21;99821.81;;;11.13;100.00
18436;BME280;9346;52.006;4.720;2023-04-01T11:24:18;99822.00;;;11.17;100.00
18436;BME280;9346;52.006;4.720;2023-04-01T11:26:54;99822.00;;;11.17;100.00
18436;BME280;9346;52.006;4.720;2023-04-01T11:29:41;99826.41;;;11.18;100.00
18436;BME280;9346;52.006;4.720;2023-04-01T11:32:25;99836.22;;;11.24;100.00
18436;BME280;9346;52.006;4.720;2023-04-01T11:35:06;99838.97;;;11.24;100.00
18436;BME280;9346;52.006;4.720;2023-04-01T11:37:46;99841.66;;;11.29;100.00
18436;BME280;9346;52.006;4.720;2023-04-01T11:40:28;99844.31;;;11.34;100.00
18436;BME280;9346;52.006;4.720;2023-04-01T11:43:01;99844.13;;;11.30;100.00
18436;BME280;9346;52.006;4.720;2023-04-01T11:45:36;99852.38;;;11.30;100.00
18436;BME280;9346;52.006;4.720;2023-04-01T11:48:17;99851.47;;;11.35;100.00
18436;BME280;9346;52.006;4.720;2023-04-01T11:53:53;99851.59;;;11.44;100.00
18436;BME280;9346;52.006;4.720;2023-04-01T11:56:49;99863.66;;;11.48;100.00
18436;BME280;9346;52.006;4.720;2023-04-01T11:59:58;99864.25;;;11.45;100.00
18436;BME280;9346;52.006;4.720;2023-04-01T12:02:34;99863.94;;;11.46;100.00
18436;BME280;9346;52.006;4.720;2023-04-01T12:05:41;99876.22;;;11.54;100.00
18436;BME280;9346;52.006;4.720;2023-04-01T12:08:30;99883.06;;;11.56;100.00
18436;BME280;9346;52.006;4.720;2023-04-01T12:11:07;99877.78;;;11.60;100.00
18436;BME280;9346;52.006;4.720;2023-04-01T12:13:45;99879.41;;;11.61;100.00
18436;BME280;9346;52.006;4.720;2023-04-01T12:16:36;99887.94;;;11.64;100.00
18436;BME280;9346;52.006;4.720;2023-04-01T12:19:14;99889.03;;;11.63;100.00
18436;BME280;9346;52.006;4.720;2023-04-01T12:21:52;99891.19;;;11.66;100.00
18436;BME280;9346;52.006;4.720;2023-04-01T12:24:46;99899.16;;;11.68;100.00
18436;BME280;9346;52.006;4.720;2023-04-01T12:27:29;99901.41;;;11.66;100.00
18436;BME280;9346;52.006;4.720;2023-04-01T12:30:27;99903.03;;;11.67;100.00
18436;BME280;9346;52.006;4.720;2023-04-01T12:33:10;99906.34;;;11.69;100.00
18436;BME280;9346;52.006;4.720;2023-04-01T12:35:53;99912.88;;;11.73;100.00
18436;BME280;9346;52.006;4.720;2023-04-01T12:38:28;99912.88;;;11.73;100.00
18436;BME280;9346;52.006;4.720;2023-04-01T12:41:08;99912.34;;;11.71;100.00
18436;BME280;9346;52.006;4.720;2023-04-01T12:47:11;99925.63;;;11.82;100.00
18436;BME280;9346;52.006;4.720;2023-04-01T12:49:55;99924.72;;;11.87;100.00
18436;BME280;9346;52.006;4.720;2023-04-01T12:52:33;99926.59;;;11.91;100.00
18436;BME280;9346;52.006;4.720;2023-04-01T12:55:18;99926.19;;;11.98;100.00
18436;BME280;9346;52.006;4.720;2023-04-01T13:01:03;99937.22;;;12.11;100.00
18436;BME280;9346;52.006;4.720;2023-04-01T13:03:46;99935.81;;;12.14;100.00
18436;BME280;9346;52.006;4.720;2023-04-01T13:06:26;99946.84;;;12.14;100.00
18436;BME280;9346;52.006;4.720;2023-04-01T13:09:01;99944.41;;;12.12;100.00
18436;BME280;9346;52.006;4.720;2023-04-01T13:11:40;99950.53;;;12.09;100.00
18436;BME280;9346;52.006;4.720;2023-04-01T13:14:29;99954.19;;;12.05;100.00
18436;BME280;9346;52.006;4.720;2023-04-01T13:17:07;99959.72;;;12.05;100.00
18436;BME280;9346;52.006;4.720;2023-04-01T13:19:46;99961.66;;;12.04;100.00
18436;BME280;9346;52.006;4.720;2023-04-01T13:22:20;99974.97;;;12.02;100.00
18436;BME280;9346;52.006;4.720;2023-04-01T13:24:55;99974.97;;;12.02;100.00
18436;BME280;9346;52.006;4.720;2023-04-01T13:27:34;99977.72;;;12.02;100.00
18436;BME280;9346;52.006;4.720;2023-04-01T13:30:18;99976.06;;;12.01;100.00
18436;BME280;9346;52.006;4.720;2023-04-01T13:32:57;99974.44;;;12.00;100.00
18436;BME280;9346;52.006;4.720;2023-04-01T13:35:34;99983.25;;;12.02;100.00
18436;BME280;9346;52.006;4.720;2023-04-01T13:38:17;99984.16;;;11.98;100.00
18436;BME280;9346;52.006;4.720;2023-04-01T13:40:54;99986.69;;;11.94;100.00
18436;BME280;9346;52.006;4.720;2023-04-01T13:43:31;99990.28;;;11.95;100.00
18436;BME280;9346;52.006;4.720;2023-04-01T13:46:22;99993.81;;;11.95;100.00
18436;BME280;9346;52.006;4.720;2023-04-01T13:49:08;99986.47;;;11.91;100.00
18436;BME280;9346;52.006;4.720;2023-04-01T13:55:18;99999.34;;;11.95;100.00
18436;BME280;9346;52.006;4.720;2023-04-01T13:58:10;99999.88;;;11.97;100.00
18436;BME280;9346;52.006;4.720;2023-04-01T14:00:50;100005.94;;;11.99;100.00
18436;BME280;9346;52.006;4.720;2023-04-01T14:03:30;100005.09;;;11.99;100.00
18436;BME280;9346;52.006;4.720;2023-04-01T14:06:06;100002.88;;;12.01;100.00
18436;BME280;9346;52.006;4.720;2023-04-01T14:08:51;100011.63;;;12.03;100.00
18436;BME280;9346;52.006;4.720;2023-04-01T14:11:30;100017.38;;;12.06;100.00
18436;BME280;9346;52.006;4.720;2023-04-01T14:14:11;100017.38;;;12.06;100.00
18436;BME280;9346;52.006;4.720;2023-04-01T14:16:56;100016.03;;;12.04;100.00
18436;BME280;9346;52.006;4.720;2023-04-01T14:19:39;100027.59;;;12.06;100.00
18436;BME280;9346;52.006;4.720;2023-04-01T14:22:21;100029.75;;;12.09;100.00
18436;BME280;9346;52.006;4.720;2023-04-01T14:25:10;100040.78;;;12.09;100.00
18436;BME280;9346;52.006;4.720;2023-04-01T14:27:52;100037.19;;;12.08;100.00
18436;BME280;9346;52.006;4.720;2023-04-01T14:30:44;100049.69;;;12.06;100.00
18436;BME280;9346;52.006;4.720;2023-04-01T14:33:23;100058.47;;;12.08;100.00
18436;BME280;9346;52.006;4.720;2023-04-01T14:36:04;100054.59;;;12.09;100.00
18436;BME280;9346;52.006;4.720;2023-04-01T14:38:46;100054.59;;;12.09;100.00
18436;BME280;9346;52.006;4.720;2023-04-01T14:41:20;100051.00;;;12.08;100.00
18436;BME280;9346;52.006;4.720;2023-04-01T14:44:00;100061.25;;;12.08;100.00
18436;BME280;9346;52.006;4.720;2023-04-01T14:46:57;100060.03;;;12.14;100.00
18436;BME280;9346;52.006;4.720;2023-04-01T14:49:32;100066.06;;;12.16;100.00
18436;BME280;9346;52.006;4.720;2023-04-01T14:52:05;100077.81;;;12.21;100.00